sensor_id;sensor_type;location;lat;lon;timestamp;pressure;altitude;pressure_sealevel;temperature
28305;BMP280;15569;42.652;23.040;2023-11-21T00:01:56;92773.91;;;5.45
28305;BMP280;15569;42.652;23.040;2023-11-21T00:04:22;92774.22;;;5.39
28305;BMP280;15569;42.652;23.040;2023-11-21T00:06:47;92759.19;;;5.36
28305;BMP280;15569;42.652;23.040;2023-11-21T00:09:13;92763.16;;;5.35
28305;BMP280;15569;42.652;23.040;2023-11-21T00:11:41;92764.03;;;5.28
28305;BMP280;15569;42.652;23.040;2023-11-21T00:14:06;92759.63;;;5.23
28305;BMP280;15569;42.652;23.040;2023-11-21T00:16:32;92774.34;;;5.31
28305;BMP280;15569;42.652;23.040;2023-11-21T00:18:57;92783.66;;;5.50
28305;BMP280;15569;42.652;23.040;2023-11-21T00:21:23;92783.94;;;5.63
28305;BMP280;15569;42.652;23.040;2023-11-21T00:23:48;92782.41;;;5.51
28305;BMP280;15569;42.652;23.040;2023-11-21T00:26:13;92778.91;;;5.38
28305;BMP280;15569;42.652;23.040;2023-11-21T00:28:39;92782.31;;;5.29
28305;BMP280;15569;42.652;23.040;2023-11-21T00:31:05;92791.66;;;5.28
28305;BMP280;15569;42.652;23.040;2023-11-21T00:33:30;92791.84;;;5.21
28305;BMP280;15569;42.652;23.040;2023-11-21T00:35:56;92796.50;;;5.20
28305;BMP280;15569;42.652;23.040;2023-11-21T00:38:21;92801.63;;;5.16
28305;BMP280;15569;42.652;23.040;2023-11-21T00:40:47;92792.25;;;5.17
28305;BMP280;15569;42.652;23.040;2023-11-21T00:43:12;92788.28;;;5.09
28305;BMP280;15569;42.652;23.040;2023-11-21T00:45:38;92790.41;;;5.20
28305;BMP280;15569;42.652;23.040;2023-11-21T00:48:05;92780.94;;;5.19
28305;BMP280;15569;42.652;23.040;2023-11-21T00:50:30;92773.41;;;5.08
28305;BMP280;15569;42.652;23.040;2023-11-21T00:52:56;92775.41;;;5.07
28305;BMP280;15569;42.652;23.040;2023-11-21T00:55:22;92781.94;;;5.04
28305;BMP280;15569;42.652;23.040;2023-11-21T00:57:48;92771.16;;;4.95
28305;BMP280;15569;42.652;23.040;2023-11-21T01:00:13;92764.34;;;5.03
28305;BMP280;15569;42.652;23.040;2023-11-21T01:02:43;92749.47;;;4.93
28305;BMP280;15569;42.652;23.040;2023-11-21T01:05:09;92762.38;;;4.94
28305;BMP280;15569;42.652;23.040;2023-11-21T01:07:35;92754.72;;;4.91
28305;BMP280;15569;42.652;23.040;2023-11-21T01:10:02;92758.84;;;4.82
28305;BMP280;15569;42.652;23.040;2023-11-21T01:12:28;92763.09;;;4.85
28305;BMP280;15569;42.652;23.040;2023-11-21T01:14:53;92768.47;;;4.95
28305;BMP280;15569;42.652;23.040;2023-11-21T01:17:19;92771.28;;;4.97
28305;BMP280;15569;42.652;23.040;2023-11-21T01:19:44;92775.00;;;4.92
28305;BMP280;15569;42.652;23.040;2023-11-21T01:22:10;92781.94;;;4.95
28305;BMP280;15569;42.652;23.040;2023-11-21T01:24:37;92760.00;;;4.89
28305;BMP280;15569;42.652;23.040;2023-11-21T01:27:02;92773.69;;;4.93
28305;BMP280;15569;42.652;23.040;2023-11-21T01:29:29;92774.28;;;4.91
28305;BMP280;15569;42.652;23.040;2023-11-21T01:31:55;92768.63;;;4.78
28305;BMP280;15569;42.652;23.040;2023-11-21T01:34:22;92774.72;;;4.88
28305;BMP280;15569;42.652;23.040;2023-11-21T01:36:48;92769.19;;;4.76
28305;BMP280;15569;42.652;23.040;2023-11-21T01:39:14;92769.19;;;4.66
28305;BMP280;15569;42.652;23.040;2023-11-21T01:41:41;92751.63;;;4.65
28305;BMP280;15569;42.652;23.040;2023-11-21T01:44:09;92754.06;;;4.71
28305;BMP280;15569;42.652;23.040;2023-11-21T01:46:35;92743.28;;;4.71
28305;BMP280;15569;42.652;23.040;2023-11-21T01:49:01;92750.03;;;4.72
28305;BMP280;15569;42.652;23.040;2023-11-21T01:51:26;92748.94;;;4.65
28305;BMP280;15569;42.652;23.040;2023-11-21T01:53:52;92750.34;;;4.66
28305;BMP280;15569;42.652;23.040;2023-11-21T01:56:18;92757.56;;;4.73
28305;BMP280;15569;42.652;23.040;2023-11-21T01:58:43;92742.56;;;4.70
28305;BMP280;15569;42.652;23.040;2023-11-21T02:03:38;92760.81;;;4.82
28305;BMP280;15569;42.652;23.040;2023-11-21T02:06:04;92749.91;;;4.80
28305;BMP280;15569;42.652;23.040;2023-11-21T02:08:30;92749.91;;;4.80
28305;BMP280;15569;42.652;23.040;2023-11-21T02:10:56;92748.06;;;4.82
28305;BMP280;15569;42.652;23.040;2023-11-21T02:13:22;92743.94;;;4.81
28305;BMP280;15569;42.652;23.040;2023-11-21T02:15:48;92750.47;;;4.88
28305;BMP280;15569;42.652;23.040;2023-11-21T02:18:17;92750.34;;;4.86
28305;BMP280;15569;42.652;23.040;2023-11-21T02:20:43;92749.03;;;4.96
28305;BMP280;15569;42.652;23.040;2023-11-21T02:23:08;92757.53;;;4.93
28305;BMP280;15569;42.652;23.040;2023-11-21T02:25:33;92753.44;;;4.92
28305;BMP280;15569;42.652;23.040;2023-11-21T02:28:00;92745.38;;;4.92
28305;BMP280;15569;42.652;23.040;2023-11-21T02:30:26;92749.06;;;4.87
28305;BMP280;15569;42.652;23.040;2023-11-21T02:32:53;92739.28;;;4.82
28305;BMP280;15569;42.652;23.040;2023-11-21T02:35:19;92741.25;;;4.91
28305;BMP280;15569;42.652;23.040;2023-11-21T02:37:47;92729.03;;;4.90
28305;BMP280;15569;42.652;23.040;2023-11-21T02:40:12;92733.16;;;4.91
28305;BMP280;15569;42.652;23.040;2023-11-21T02:42:39;92747.47;;;4.93
28305;BMP280;15569;42.652;23.040;2023-11-21T02:45:06;92748.91;;;4.94
28305;BMP280;15569;42.652;23.040;2023-11-21T02:47:32;92742.94;;;4.96
28305;BMP280;15569;42.652;23.040;2023-11-21T02:49:58;92742.22;;;5.05
28305;BMP280;15569;42.652;23.040;2023-11-21T02:52:24;92739.41;;;4.93
28305;BMP280;15569;42.652;23.040;2023-11-21T02:54:50;92727.38;;;4.85
28305;BMP280;15569;42.652;23.040;2023-11-21T02:57:16;92738.16;;;4.85
28305;BMP280;15569;42.652;23.040;2023-11-21T02:59:41;92727.22;;;4.92
28305;BMP280;15569;42.652;23.040;2023-11-21T03:02:07;92729.47;;;4.96
28305;BMP280;15569;42.652;23.040;2023-11-21T03:04:33;92738.00;;;4.92
28305;BMP280;15569;42.652;23.040;2023-11-21T03:07:00;92736.31;;;4.87
28305;BMP280;15569;42.652;23.040;2023-11-21T03:09:25;92745.63;;;4.96
28305;BMP280;15569;42.652;23.040;2023-11-21T03:11:53;92739.97;;;4.92
28305;BMP280;15569;42.652;23.040;2023-11-21T03:14:18;92746.63;;;4.91
28305;BMP280;15569;42.652;23.040;2023-11-21T03:16:44;92749.47;;;4.93
28305;BMP280;15569;42.652;23.040;2023-11-21T03:19:11;92742.94;;;4.96
28305;BMP280;15569;42.652;23.040;2023-11-21T03:21:36;92750.06;;;4.82
28305;BMP280;15569;42.652;23.040;2023-11-21T03:24:02;92750.88;;;4.94
28305;BMP280;15569;42.652;23.040;2023-11-21T03:26:27;92756.28;;;4.84
28305;BMP280;15569;42.652;23.040;2023-11-21T03:28:53;92753.59;;;4.84
28305;BMP280;15569;42.652;23.040;2023-11-21T03:31:18;92739.28;;;4.82
28305;BMP280;15569;42.652;23.040;2023-11-21T03:33:45;92743.84;;;4.89
28305;BMP280;15569;42.652;23.040;2023-11-21T03:36:11;92730.78;;;4.75
28305;BMP280;15569;42.652;23.040;2023-11-21T03:38:37;92724.53;;;4.73
28305;BMP280;15569;42.652;23.040;2023-11-21T03:41:03;92720.53;;;4.93
28305;BMP280;15569;42.652;23.040;2023-11-21T03:43:29;92722.13;;;4.87
28305;BMP280;15569;42.652;23.040;2023-11-21T03:45:54;92717.31;;;4.95
28305;BMP280;15569;42.652;23.040;2023-11-21T03:48:19;92708.94;;;5.00
28305;BMP280;15569;42.652;23.040;2023-11-21T03:50:45;92704.56;;;4.86
28305;BMP280;15569;42.652;23.040;2023-11-21T03:53:12;92699.91;;;4.86
28305;BMP280;15569;42.652;23.040;2023-11-21T03:55:37;92701.16;;;4.85
28305;BMP280;15569;42.652;23.040;2023-11-21T03:58:03;92705.97;;;4.87
28305;BMP280;15569;42.652;23.040;2023-11-21T04:00:28;92710.66;;;4.76
28305;BMP280;15569;42.652;23.040;2023-11-21T04:02:53;92712.94;;;4.80
28305;BMP280;15569;42.652;23.040;2023-11-21T04:05:20;92700.75;;;4.69
28305;BMP280;15569;42.652;23.040;2023-11-21T04:07:49;92700.22;;;4.71
28305;BMP280;15569;42.652;23.040;2023-11-21T04:10:15;92705.69;;;4.73
28305;BMP280;15569;42.652;23.040;2023-11-21T04:12:41;92703.88;;;4.66
28305;BMP280;15569;42.652;23.040;2023-11-21T04:15:06;92702.75;;;4.59
28305;BMP280;15569;42.652;23.040;2023-11-21T04:17:34;92707.44;;;4.68
28305;BMP280;15569;42.652;23.040;2023-11-21T04:20:00;92714.09;;;4.67
28305;BMP280;15569;42.652;23.040;2023-11-21T04:22:25;92712.22;;;4.60
28305;BMP280;15569;42.652;23.040;2023-11-21T04:24:50;92718.47;;;4.63
28305;BMP280;15569;42.652;23.040;2023-11-21T04:27:16;92718.88;;;4.69
28305;BMP280;15569;42.652;23.040;2023-11-21T04:29:43;92711.78;;;4.73
28305;BMP280;15569;42.652;23.040;2023-11-21T04:32:09;92710.97;;;4.61
28305;BMP280;15569;42.652;23.040;2023-11-21T04:34:34;92707.25;;;4.57
28305;BMP280;15569;42.652;23.040;2023-11-21T04:37:00;92706.00;;;4.77
28305;BMP280;15569;42.652;23.040;2023-11-21T04:39:26;92700.91;;;4.71
28305;BMP280;15569;42.652;23.040;2023-11-21T04:41:51;92703.13;;;4.75
28305;BMP280;15569;42.652;23.040;2023-11-21T04:44:17;92692.13;;;4.71
28305;BMP280;15569;42.652;23.040;2023-11-21T04:46:42;92696.06;;;4.80
28305;BMP280;15569;42.652;23.040;2023-11-21T04:49:08;92706.97;;;4.72
28305;BMP280;15569;42.652;23.040;2023-11-21T04:51:34;92707.84;;;4.74
28305;BMP280;15569;42.652;23.040;2023-11-21T04:53:59;92722.13;;;4.87
28305;BMP280;15569;42.652;23.040;2023-11-21T04:56:24;92711.94;;;4.85
28305;BMP280;15569;42.652;23.040;2023-11-21T04:58:50;92717.88;;;4.84
28305;BMP280;15569;42.652;23.040;2023-11-21T05:01:15;92708.81;;;4.89
28305;BMP280;15569;42.652;23.040;2023-11-21T05:03:41;92713.34;;;4.76
28305;BMP280;15569;42.652;23.040;2023-11-21T05:06:09;92698.66;;;4.68
28305;BMP280;15569;42.652;23.040;2023-11-21T05:08:35;92703.44;;;4.69
28305;BMP280;15569;42.652;23.040;2023-11-21T05:11:02;92708.41;;;4.83
28305;BMP280;15569;42.652;23.040;2023-11-21T05:13:28;92718.44;;;4.72
28305;BMP280;15569;42.652;23.040;2023-11-21T05:15:56;92715.50;;;4.68
28305;BMP280;15569;42.652;23.040;2023-11-21T05:18:24;92712.81;;;4.68
28305;BMP280;15569;42.652;23.040;2023-11-21T05:20:52;92719.16;;;4.73
28305;BMP280;15569;42.652;23.040;2023-11-21T05:23:19;92710.38;;;4.63
28305;BMP280;15569;42.652;23.040;2023-11-21T05:25:44;92724.28;;;4.69
28305;BMP280;15569;42.652;23.040;2023-11-21T05:28:11;92721.44;;;4.67
28305;BMP280;15569;42.652;23.040;2023-11-21T05:30:36;92725.41;;;4.75
28305;BMP280;15569;42.652;23.040;2023-11-21T05:33:03;92727.81;;;4.71
28305;BMP280;15569;42.652;23.040;2023-11-21T05:35:29;92724.13;;;4.76
28305;BMP280;15569;42.652;23.040;2023-11-21T05:37:54;92724.69;;;4.75
28305;BMP280;15569;42.652;23.040;2023-11-21T05:40:19;92721.28;;;4.84
28305;BMP280;15569;42.652;23.040;2023-11-21T05:42:47;92714.50;;;4.64
28305;BMP280;15569;42.652;23.040;2023-11-21T05:45:13;92720.59;;;4.64
28305;BMP280;15569;42.652;23.040;2023-11-21T05:47:40;92724.25;;;4.78
28305;BMP280;15569;42.652;23.040;2023-11-21T05:50:08;92715.19;;;4.74
28305;BMP280;15569;42.652;23.040;2023-11-21T05:52:38;92724.00;;;4.74
28305;BMP280;15569;42.652;23.040;2023-11-21T05:55:05;92722.69;;;4.75
28305;BMP280;15569;42.652;23.040;2023-11-21T05:57:36;92721.69;;;4.81
28305;BMP280;15569;42.652;23.040;2023-11-21T06:00:09;92721.88;;;4.83
28305;BMP280;15569;42.652;23.040;2023-11-21T06:02:46;92723.84;;;4.82
28305;BMP280;15569;42.652;23.040;2023-11-21T06:05:12;92724.56;;;4.83
28305;BMP280;15569;42.652;23.040;2023-11-21T06:07:38;92722.81;;;4.97
28305;BMP280;15569;42.652;23.040;2023-11-21T06:10:07;92726.09;;;4.95
28305;BMP280;15569;42.652;23.040;2023-11-21T06:12:37;92731.63;;;4.97
28305;BMP280;15569;42.652;23.040;2023-11-21T06:15:03;92734.00;;;5.03
28305;BMP280;15569;42.652;23.040;2023-11-21T06:17:33;92729.59;;;5.07
28305;BMP280;15569;42.652;23.040;2023-11-21T06:20:05;92731.28;;;5.22
28305;BMP280;15569;42.652;23.040;2023-11-21T06:22:35;92731.94;;;5.32
28305;BMP280;15569;42.652;23.040;2023-11-21T06:25:01;92741.16;;;5.38
28305;BMP280;15569;42.652;23.040;2023-11-21T06:27:27;92741.97;;;5.41
28305;BMP280;15569;42.652;23.040;2023-11-21T06:29:53;92741.59;;;5.35
28305;BMP280;15569;42.652;23.040;2023-11-21T06:32:18;92749.97;;;5.39
28305;BMP280;15569;42.652;23.040;2023-11-21T06:34:45;92745.25;;;5.39
28305;BMP280;15569;42.652;23.040;2023-11-21T06:37:11;92753.19;;;5.47
28305;BMP280;15569;42.652;23.040;2023-11-21T06:39:37;92758.22;;;5.62
28305;BMP280;15569;42.652;23.040;2023-11-21T06:42:03;92749.78;;;5.77
28305;BMP280;15569;42.652;23.040;2023-11-21T06:44:29;92750.00;;;5.91
28305;BMP280;15569;42.652;23.040;2023-11-21T06:46:54;92754.53;;;5.98
28305;BMP280;15569;42.652;23.040;2023-11-21T06:49:20;92753.19;;;6.09
28305;BMP280;15569;42.652;23.040;2023-11-21T06:51:45;92757.66;;;6.16
28305;BMP280;15569;42.652;23.040;2023-11-21T06:54:11;92745.47;;;6.15
28305;BMP280;15569;42.652;23.040;2023-11-21T06:56:36;92759.84;;;6.38
28305;BMP280;15569;42.652;23.040;2023-11-21T06:59:01;92757.34;;;6.42
28305;BMP280;15569;42.652;23.040;2023-11-21T07:01:28;92760.59;;;6.50
28305;BMP280;15569;42.652;23.040;2023-11-21T07:03:53;92752.16;;;6.56
28305;BMP280;15569;42.652;23.040;2023-11-21T07:06:19;92750.19;;;6.68
28305;BMP280;15569;42.652;23.040;2023-11-21T07:08:44;92748.69;;;6.65
28305;BMP280;15569;42.652;23.040;2023-11-21T07:11:09;92755.41;;;6.76
28305;BMP280;15569;42.652;23.040;2023-11-21T07:13:35;92754.59;;;6.85
28305;BMP280;15569;42.652;23.040;2023-11-21T07:16:00;92746.97;;;6.93
28305;BMP280;15569;42.652;23.040;2023-11-21T07:18:25;92748.47;;;6.30
28305;BMP280;15569;42.652;23.040;2023-11-21T07:20:51;92752.34;;;6.27
28305;BMP280;15569;42.652;23.040;2023-11-21T07:23:17;92759.53;;;6.55
28305;BMP280;15569;42.652;23.040;2023-11-21T07:25:42;92756.56;;;6.72
28305;BMP280;15569;42.652;23.040;2023-11-21T07:28:08;92744.03;;;6.77
28305;BMP280;15569;42.652;23.040;2023-11-21T07:30:34;92759.56;;;6.88
28305;BMP280;15569;42.652;23.040;2023-11-21T07:32:59;92763.22;;;7.04
28305;BMP280;15569;42.652;23.040;2023-11-21T07:35:24;92758.78;;;7.09
28305;BMP280;15569;42.652;23.040;2023-11-21T07:37:50;92759.78;;;7.25
28305;BMP280;15569;42.652;23.040;2023-11-21T07:40:15;92758.38;;;7.35
28305;BMP280;15569;42.652;23.040;2023-11-21T07:42:42;92752.59;;;7.41
28305;BMP280;15569;42.652;23.040;2023-11-21T07:45:08;92751.81;;;7.50
28305;BMP280;15569;42.652;23.040;2023-11-21T07:47:33;92751.34;;;7.54
28305;BMP280;15569;42.652;23.040;2023-11-21T07:50:00;92741.94;;;7.66
28305;BMP280;15569;42.652;23.040;2023-11-21T07:52:25;92753.22;;;7.63
28305;BMP280;15569;42.652;23.040;2023-11-21T07:54:51;92750.88;;;7.69
28305;BMP280;15569;42.652;23.040;2023-11-21T07:57:16;92750.03;;;7.43
28305;BMP280;15569;42.652;23.040;2023-11-21T07:59:41;92738.63;;;7.45
28305;BMP280;15569;42.652;23.040;2023-11-21T08:02:07;92745.69;;;7.61
28305;BMP280;15569;42.652;23.040;2023-11-21T08:04:33;92744.03;;;7.79
28305;BMP280;15569;42.652;23.040;2023-11-21T08:06:59;92731.56;;;7.86
28305;BMP280;15569;42.652;23.040;2023-11-21T08:09:24;92748.75;;;8.02
28305;BMP280;15569;42.652;23.040;2023-11-21T08:11:50;92748.91;;;8.18
28305;BMP280;15569;42.652;23.040;2023-11-21T08:14:17;92738.09;;;8.18
28305;BMP280;15569;42.652;23.040;2023-11-21T08:16:42;92731.88;;;8.15
28305;BMP280;15569;42.652;23.040;2023-11-21T08:19:07;92744.44;;;8.22
28305;BMP280;15569;42.652;23.040;2023-11-21T08:21:34;92736.38;;;8.47
28305;BMP280;15569;42.652;23.040;2023-11-21T08:24:02;92732.13;;;8.56
28305;BMP280;15569;42.652;23.040;2023-11-21T08:26:29;92731.78;;;8.50
28305;BMP280;15569;42.652;23.040;2023-11-21T08:28:55;92734.00;;;8.53
28305;BMP280;15569;42.652;23.040;2023-11-21T08:31:25;92737.72;;;8.60
28305;BMP280;15569;42.652;23.040;2023-11-21T08:33:50;92736.81;;;8.80
28305;BMP280;15569;42.652;23.040;2023-11-21T08:36:16;92727.53;;;8.97
28305;BMP280;15569;42.652;23.040;2023-11-21T08:41:10;92727.72;;;9.26
28305;BMP280;15569;42.652;23.040;2023-11-21T08:43:36;92718.50;;;9.45
28305;BMP280;15569;42.652;23.040;2023-11-21T08:46:05;92711.16;;;9.61
28305;BMP280;15569;42.652;23.040;2023-11-21T08:48:31;92699.09;;;9.64
28305;BMP280;15569;42.652;23.040;2023-11-21T08:50:56;92697.72;;;9.77
28305;BMP280;15569;42.652;23.040;2023-11-21T08:53:22;92693.06;;;9.93
28305;BMP280;15569;42.652;23.040;2023-11-21T08:55:47;92688.91;;;10.05
28305;BMP280;15569;42.652;23.040;2023-11-21T08:58:13;92682.44;;;10.12
28305;BMP280;15569;42.652;23.040;2023-11-21T09:00:40;92687.88;;;10.12
28305;BMP280;15569;42.652;23.040;2023-11-21T09:03:05;92667.25;;;10.21
28305;BMP280;15569;42.652;23.040;2023-11-21T09:05:34;92654.38;;;10.21
28305;BMP280;15569;42.652;23.040;2023-11-21T09:07:59;92647.13;;;10.26
28305;BMP280;15569;42.652;23.040;2023-11-21T09:10:24;92648.97;;;10.37
28305;BMP280;15569;42.652;23.040;2023-11-21T09:12:50;92637.63;;;10.41
28305;BMP280;15569;42.652;23.040;2023-11-21T09:15:17;92632.44;;;10.47
28305;BMP280;15569;42.652;23.040;2023-11-21T09:17:42;92642.81;;;10.66
28305;BMP280;15569;42.652;23.040;2023-11-21T09:20:10;92630.41;;;10.47
28305;BMP280;15569;42.652;23.040;2023-11-21T09:22:35;92618.72;;;10.58
28305;BMP280;15569;42.652;23.040;2023-11-21T09:25:01;92629.13;;;10.64
28305;BMP280;15569;42.652;23.040;2023-11-21T09:27:30;92614.78;;;10.77
28305;BMP280;15569;42.652;23.040;2023-11-21T09:29:56;92599.84;;;10.93
28305;BMP280;15569;42.652;23.040;2023-11-21T09:32:23;92595.81;;;10.79
28305;BMP280;15569;42.652;23.040;2023-11-21T09:34:49;92589.59;;;10.92
28305;BMP280;15569;42.652;23.040;2023-11-21T09:37:15;92586.91;;;10.76
28305;BMP280;15569;42.652;23.040;2023-11-21T09:39:41;92588.97;;;10.93
28305;BMP280;15569;42.652;23.040;2023-11-21T09:42:21;92585.53;;;10.77
28305;BMP280;15569;42.652;23.040;2023-11-21T09:44:59;92597.94;;;10.65
28305;BMP280;15569;42.652;23.040;2023-11-21T09:47:26;92596.00;;;10.52
28305;BMP280;15569;42.652;23.040;2023-11-21T09:49:54;92588.38;;;10.64
28305;BMP280;15569;42.652;23.040;2023-11-21T09:52:25;92588.63;;;10.70
28305;BMP280;15569;42.652;23.040;2023-11-21T09:54:55;92566.47;;;10.75
28305;BMP280;15569;42.652;23.040;2023-11-21T09:57:24;92580.09;;;10.93
28305;BMP280;15569;42.652;23.040;2023-11-21T09:59:54;92573.66;;;11.00
28305;BMP280;15569;42.652;23.040;2023-11-21T10:02:28;92574.66;;;11.08
28305;BMP280;15569;42.652;23.040;2023-11-21T10:04:58;92566.22;;;11.18
28305;BMP280;15569;42.652;23.040;2023-11-21T10:07:25;92564.66;;;11.13
28305;BMP280;15569;42.652;23.040;2023-11-21T10:09:52;92557.44;;;11.20
28305;BMP280;15569;42.652;23.040;2023-11-21T10:12:18;92551.56;;;11.09
28305;BMP280;15569;42.652;23.040;2023-11-21T10:14:48;92552.03;;;11.04
28305;BMP280;15569;42.652;23.040;2023-11-21T10:17:14;92561.34;;;11.15
28305;BMP280;15569;42.652;23.040;2023-11-21T10:19:42;92555.69;;;11.26
28305;BMP280;15569;42.652;23.040;2023-11-21T10:22:08;92552.75;;;11.38
28305;BMP280;15569;42.652;23.040;2023-11-21T10:24:34;92546.34;;;11.31
28305;BMP280;15569;42.652;23.040;2023-11-21T10:26:59;92549.41;;;11.39
28305;BMP280;15569;42.652;23.040;2023-11-21T10:29:29;92537.38;;;11.44
28305;BMP280;15569;42.652;23.040;2023-11-21T10:31:55;92534.47;;;11.40
28305;BMP280;15569;42.652;23.040;2023-11-21T10:34:23;92530.84;;;11.51
28305;BMP280;15569;42.652;23.040;2023-11-21T10:36:49;92532.06;;;11.48
28305;BMP280;15569;42.652;23.040;2023-11-21T10:39:17;92526.53;;;11.46
28305;BMP280;15569;42.652;23.040;2023-11-21T10:41:47;92526.09;;;11.52
28305;BMP280;15569;42.652;23.040;2023-11-21T10:44:17;92528.97;;;11.56
28305;BMP280;15569;42.652;23.040;2023-11-21T10:46:50;92527.94;;;10.96
28305;BMP280;15569;42.652;23.040;2023-11-21T10:49:19;92522.50;;;11.30
28305;BMP280;15569;42.652;23.040;2023-11-21T10:51:45;92513.47;;;11.43
28305;BMP280;15569;42.652;23.040;2023-11-21T10:54:10;92512.81;;;11.42
28305;BMP280;15569;42.652;23.040;2023-11-21T10:56:39;92521.09;;;11.29
28305;BMP280;15569;42.652;23.040;2023-11-21T10:59:10;92516.91;;;11.43
28305;BMP280;15569;42.652;23.040;2023-11-21T11:01:44;92513.19;;;11.52
28305;BMP280;15569;42.652;23.040;2023-11-21T11:04:11;92507.50;;;11.29
28305;BMP280;15569;42.652;23.040;2023-11-21T11:06:43;92492.91;;;11.38
28305;BMP280;15569;42.652;23.040;2023-11-21T11:09:11;92493.03;;;11.24
28305;BMP280;15569;42.652;23.040;2023-11-21T11:11:39;92494.41;;;11.25
28305;BMP280;15569;42.652;23.040;2023-11-21T11:14:09;92490.34;;;11.08
28305;BMP280;15569;42.652;23.040;2023-11-21T11:16:36;92489.22;;;10.98
28305;BMP280;15569;42.652;23.040;2023-11-21T11:19:02;92477.28;;;11.05
28305;BMP280;15569;42.652;23.040;2023-11-21T11:24:36;92491.06;;;10.76
28305;BMP280;15569;42.652;23.040;2023-11-21T11:27:20;92489.97;;;10.83
28305;BMP280;15569;42.652;23.040;2023-11-21T11:30:23;92501.41;;;10.64
28305;BMP280;15569;42.652;23.040;2023-11-21T11:33:37;92499.47;;;10.66
28305;BMP280;15569;42.652;23.040;2023-11-21T11:36:13;92505.34;;;10.76
28305;BMP280;15569;42.652;23.040;2023-11-21T11:38:38;92493.81;;;10.78
28305;BMP280;15569;42.652;23.040;2023-11-21T11:41:06;92489.41;;;11.02
28305;BMP280;15569;42.652;23.040;2023-11-21T11:43:32;92482.81;;;11.07
28305;BMP280;15569;42.652;23.040;2023-11-21T11:46:10;92486.63;;;11.18
28305;BMP280;15569;42.652;23.040;2023-11-21T11:48:39;92494.28;;;11.21
28305;BMP280;15569;42.652;23.040;2023-11-21T11:51:14;92497.38;;;11.31
28305;BMP280;15569;42.652;23.040;2023-11-21T11:53:42;92508.16;;;11.12
28305;BMP280;15569;42.652;23.040;2023-11-21T11:56:27;92497.59;;;11.20
28305;BMP280;15569;42.652;23.040;2023-11-21T11:58:54;92500.63;;;11.28
28305;BMP280;15569;42.652;23.040;2023-11-21T12:01:21;92479.72;;;11.15
28305;BMP280;15569;42.652;23.040;2023-11-21T12:04:23;92494.44;;;11.09
28305;BMP280;15569;42.652;23.040;2023-11-21T12:06:52;92494.66;;;10.98
28305;BMP280;15569;42.652;23.040;2023-11-21T12:09:22;92479.38;;;11.06
28305;BMP280;15569;42.652;23.040;2023-11-21T12:11:49;92476.03;;;11.08
28305;BMP280;15569;42.652;23.040;2023-11-21T12:14:15;92471.16;;;11.04
28305;BMP280;15569;42.652;23.040;2023-11-21T12:16:41;92464.75;;;10.98
28305;BMP280;15569;42.652;23.040;2023-11-21T12:19:08;92468.09;;;10.96
28305;BMP280;15569;42.652;23.040;2023-11-21T12:21:33;92476.25;;;10.96
28305;BMP280;15569;42.652;23.040;2023-11-21T12:23:59;92472.06;;;10.78
28305;BMP280;15569;42.652;23.040;2023-11-21T12:26:25;92464.13;;;10.82
28305;BMP280;15569;42.652;23.040;2023-11-21T12:28:53;92462.66;;;10.96
28305;BMP280;15569;42.652;23.040;2023-11-21T12:31:22;92451.31;;;11.02
28305;BMP280;15569;42.652;23.040;2023-11-21T12:33:48;92441.84;;;11.03
28305;BMP280;15569;42.652;23.040;2023-11-21T12:36:13;92433.94;;;11.09
28305;BMP280;15569;42.652;23.040;2023-11-21T12:38:39;92421.72;;;11.10
28305;BMP280;15569;42.652;23.040;2023-11-21T12:41:05;92433.63;;;11.19
28305;BMP280;15569;42.652;23.040;2023-11-21T12:43:31;92424.84;;;11.20
28305;BMP280;15569;42.652;23.040;2023-11-21T12:46:08;92417.53;;;11.25
28305;BMP280;15569;42.652;23.040;2023-11-21T12:48:43;92418.34;;;11.27
28305;BMP280;15569;42.652;23.040;2023-11-21T12:51:09;92404.03;;;11.27
28305;BMP280;15569;42.652;23.040;2023-11-21T12:53:37;92410.31;;;11.31
28305;BMP280;15569;42.652;23.040;2023-11-21T12:56:07;92404.84;;;11.31
28305;BMP280;15569;42.652;23.040;2023-11-21T12:58:36;92413.56;;;11.28
28305;BMP280;15569;42.652;23.040;2023-11-21T13:01:02;92408.94;;;11.30
28305;BMP280;15569;42.652;23.040;2023-11-21T13:03:31;92413.19;;;11.35
28305;BMP280;15569;42.652;23.040;2023-11-21T13:05:58;92407.75;;;11.18
28305;BMP280;15569;42.652;23.040;2023-11-21T13:08:25;92411.25;;;11.20
28305;BMP280;15569;42.652;23.040;2023-11-21T13:10:53;92412.09;;;11.25
28305;BMP280;15569;42.652;23.040;2023-11-21T13:13:23;92419.81;;;11.30
28305;BMP280;15569;42.652;23.040;2023-11-21T13:18:15;92403.97;;;11.42
28305;BMP280;15569;42.652;23.040;2023-11-21T13:20:42;92395.88;;;11.44
28305;BMP280;15569;42.652;23.040;2023-11-21T13:23:09;92397.00;;;11.57
28305;BMP280;15569;42.652;23.040;2023-11-21T13:25:37;92391.09;;;11.62
28305;BMP280;15569;42.652;23.040;2023-11-21T13:28:04;92385.00;;;11.64
28305;BMP280;15569;42.652;23.040;2023-11-21T13:30:30;92369.63;;;11.53
28305;BMP280;15569;42.652;23.040;2023-11-21T13:33:00;92387.41;;;11.36
28305;BMP280;15569;42.652;23.040;2023-11-21T13:35:32;92388.00;;;11.35
28305;BMP280;15569;42.652;23.040;2023-11-21T13:38:07;92390.88;;;11.39
28305;BMP280;15569;42.652;23.040;2023-11-21T13:40:34;92374.22;;;11.31
28305;BMP280;15569;42.652;23.040;2023-11-21T13:43:08;92384.06;;;11.38
28305;BMP280;15569;42.652;23.040;2023-11-21T13:45:39;92366.16;;;11.33
28305;BMP280;15569;42.652;23.040;2023-11-21T13:48:06;92368.19;;;11.32
28305;BMP280;15569;42.652;23.040;2023-11-21T13:50:36;92371.19;;;11.40
28305;BMP280;15569;42.652;23.040;2023-11-21T13:53:02;92382.34;;;11.11
28305;BMP280;15569;42.652;23.040;2023-11-21T13:55:29;92378.84;;;11.08
28305;BMP280;15569;42.652;23.040;2023-11-21T13:57:55;92375.47;;;11.10
28305;BMP280;15569;42.652;23.040;2023-11-21T14:00:20;92375.97;;;11.22
28305;BMP280;15569;42.652;23.040;2023-11-21T14:03:03;92385.00;;;11.27
28305;BMP280;15569;42.652;23.040;2023-11-21T14:05:34;92389.19;;;11.30
28305;BMP280;15569;42.652;23.040;2023-11-21T14:07:59;92393.84;;;11.27
28305;BMP280;15569;42.652;23.040;2023-11-21T14:10:30;92395.94;;;11.29
28305;BMP280;15569;42.652;23.040;2023-11-21T14:13:06;92387.19;;;11.30
28305;BMP280;15569;42.652;23.040;2023-11-21T14:15:32;92397.41;;;11.32